createdAt,value
2018-03-27T00:02:10.747Z,50.08
2018-03-27T00:04:39.418Z,43.07
2018-03-27T00:07:08.154Z,50.30
2018-03-27T00:09:36.967Z,47.85
2018-03-27T00:12:05.784Z,45.67
2018-03-27T00:14:34.607Z,48.47
2018-03-27T00:17:03.432Z,46.13
2018-03-27T00:19:32.251Z,47.33
2018-03-27T00:22:01.574Z,45.08
2018-03-27T00:24:45.251Z,48.33
2018-03-27T00:27:13.277Z,47.23
2018-03-27T00:29:53.431Z,45.53
2018-03-27T00:32:40.329Z,46.50
2018-03-27T00:35:26.607Z,39.92
2018-03-27T00:38:12.892Z,38.73
2018-03-27T00:40:47.024Z,39.03
2018-03-27T00:43:15.545Z,36.63
2018-03-27T00:45:43.952Z,37.67
2018-03-27T00:48:12.363Z,36.20
2018-03-27T00:50:40.981Z,37.60
2018-03-27T00:53:09.936Z,33.15
2018-03-27T00:55:38.582Z,35.78
2018-03-27T00:58:07.299Z,33.78
2018-03-27T01:00:36.098Z,32.35
2018-03-27T01:03:04.770Z,36.25
2018-03-27T01:05:33.454Z,32.22
2018-03-27T01:08:02.261Z,32.85
2018-03-27T01:10:31.084Z,32.25
2018-03-27T01:12:59.914Z,35.72
2018-03-27T01:15:28.728Z,31.48
2018-03-27T01:17:57.452Z,34.47
2018-03-27T01:20:26.282Z,31.17
2018-03-27T01:22:55.096Z,33.85
2018-03-27T01:25:23.831Z,31.10
2018-03-27T01:27:52.540Z,33.55
2018-03-27T01:30:21.361Z,33.17
2018-03-27T01:32:50.098Z,32.42
2018-03-27T01:35:18.906Z,32.63
2018-03-27T01:37:47.627Z,35.75
2018-03-27T01:40:16.452Z,30.10
2018-03-27T01:42:45.170Z,31.33
2018-03-27T01:45:13.870Z,31.20
2018-03-27T01:47:42.716Z,29.85
2018-03-27T01:50:11.543Z,32.95
2018-03-27T01:52:40.183Z,36.92
2018-03-27T01:55:08.892Z,27.10
2018-03-27T01:57:37.615Z,31.20
2018-03-27T02:00:06.418Z,33.17
2018-03-27T02:02:35.153Z,33.58
2018-03-27T02:05:03.888Z,25.65
2018-03-27T02:07:33.295Z,26.58
2018-03-27T02:10:02.188Z,23.15
2018-03-27T02:12:36.362Z,22.13
2018-03-27T02:15:10.699Z,24.27
2018-03-27T02:17:44.848Z,25.77
2018-03-27T02:20:19.053Z,22.42
2018-03-27T02:23:03.759Z,24.52
2018-03-27T02:25:32.584Z,23.85
2018-03-27T02:28:01.404Z,25.33
2018-03-27T02:30:30.226Z,23.23
2018-03-27T02:32:58.911Z,21.75
2018-03-27T02:35:27.773Z,22.70
2018-03-27T02:37:56.493Z,20.62
2018-03-27T02:40:25.226Z,20.35
2018-03-27T02:42:54.040Z,16.48
2018-03-27T02:45:22.698Z,17.62
2018-03-27T02:47:51.384Z,14.95
2018-03-27T02:50:20.005Z,16.33
2018-03-27T02:52:48.721Z,17.40
2018-03-27T02:55:17.379Z,18.98
2018-03-27T02:57:46.168Z,19.63
2018-03-27T03:00:14.894Z,17.98
2018-03-27T03:02:43.561Z,19.53
2018-03-27T03:05:12.230Z,17.33
2018-03-27T03:07:40.861Z,18.20
2018-03-27T03:10:09.520Z,15.88
2018-03-27T03:12:38.273Z,13.02
2018-03-27T03:15:06.953Z,14.68
2018-03-27T03:17:35.590Z,11.80
2018-03-27T03:20:04.327Z,9.68
2018-03-27T03:22:32.990Z,10.50
2018-03-27T03:25:01.656Z,10.35
2018-03-27T03:27:30.429Z,9.98
2018-03-27T03:29:59.154Z,8.63
2018-03-27T03:32:27.876Z,8.07
2018-03-27T03:34:56.602Z,7.45
2018-03-27T03:37:25.231Z,9.55
2018-03-27T03:39:54.264Z,8.68
2018-03-27T03:42:22.934Z,9.32
2018-03-27T03:44:51.569Z,9.63
2018-03-27T03:47:20.184Z,10.50
2018-03-27T03:49:48.786Z,10.20
2018-03-27T03:52:17.390Z,7.60
2018-03-27T03:54:46.040Z,8.40
2018-03-27T03:57:14.643Z,7.90
2018-03-27T03:59:43.362Z,8.70
2018-03-27T04:02:11.971Z,7.73
2018-03-27T04:04:40.573Z,10.00
2018-03-27T04:07:09.922Z,8.15
2018-03-27T04:09:38.567Z,10.10
2018-03-27T04:12:07.241Z,11.55
2018-03-27T04:14:35.859Z,9.65
2018-03-27T04:17:04.496Z,9.30
2018-03-27T04:19:33.095Z,11.38
2018-03-27T04:22:01.724Z,8.88
2018-03-27T04:24:30.384Z,8.82
2018-03-27T04:26:58.971Z,9.30
2018-03-27T04:29:28.376Z,8.68
2018-03-27T04:31:56.996Z,8.65
2018-03-27T04:34:25.720Z,9.32
2018-03-27T04:36:54.448Z,7.80
2018-03-27T04:39:23.106Z,8.82
2018-03-27T04:41:51.791Z,11.65
2018-03-27T04:44:20.511Z,8.25
2018-03-27T04:46:49.300Z,11.10
2018-03-27T04:49:17.908Z,10.32
2018-03-27T04:51:46.772Z,11.18
2018-03-27T04:54:15.496Z,11.73
2018-03-27T04:56:44.104Z,11.90
2018-03-27T04:59:12.759Z,12.65
2018-03-27T05:01:41.525Z,11.60
2018-03-27T05:04:10.182Z,10.30
2018-03-27T05:06:38.804Z,10.20
2018-03-27T05:09:08.426Z,11.57
2018-03-27T05:11:37.065Z,9.77
2018-03-27T05:14:05.772Z,11.75
2018-03-27T05:16:34.743Z,10.80
2018-03-27T05:19:03.360Z,10.07
2018-03-27T05:21:32.038Z,9.32
2018-03-27T05:24:00.695Z,11.40
2018-03-27T05:26:29.414Z,10.65
2018-03-27T05:28:58.010Z,10.60
2018-03-27T05:31:26.590Z,9.63
2018-03-27T05:33:55.343Z,9.65
2018-03-27T05:36:24.169Z,10.40
2018-03-27T05:38:52.767Z,10.38
2018-03-27T05:41:21.522Z,11.90
2018-03-27T05:43:50.166Z,10.23
2018-03-27T05:46:18.894Z,8.32
2018-03-27T05:48:47.542Z,11.32
2018-03-27T05:51:16.197Z,9.68
2018-03-27T05:53:44.997Z,12.02
2018-03-27T05:56:13.614Z,13.55
2018-03-27T05:58:42.259Z,10.95
2018-03-27T06:01:11.000Z,32.17
2018-03-27T06:03:39.708Z,23.05
2018-03-27T06:06:08.451Z,15.02
2018-03-27T06:08:37.088Z,14.50
2018-03-27T06:11:06.075Z,22.50
2018-03-27T06:13:34.722Z,31.33
2018-03-27T06:16:03.366Z,14.23
2018-03-27T06:18:32.062Z,11.63
2018-03-27T06:21:00.698Z,18.43
2018-03-27T06:23:29.381Z,17.37
2018-03-27T06:25:58.206Z,13.77
2018-03-27T06:28:27.106Z,11.67
2018-03-27T06:30:55.730Z,9.47
2018-03-27T06:33:24.317Z,10.80
2018-03-27T06:35:53.196Z,13.80
2018-03-27T06:38:22.125Z,15.73
2018-03-27T06:40:50.937Z,11.47
2018-03-27T06:43:19.899Z,19.43
2018-03-27T06:45:48.585Z,32.73
2018-03-27T06:48:17.305Z,12.20
2018-03-27T06:50:46.126Z,19.77
2018-03-27T06:53:14.753Z,13.00
2018-03-27T06:55:43.387Z,13.17
2018-03-27T06:58:11.971Z,36.17
2018-03-27T07:00:40.617Z,22.23
2018-03-27T07:03:09.240Z,25.20
2018-03-27T07:05:38.004Z,10.73
2018-03-27T07:08:06.881Z,11.80
2018-03-27T07:10:35.645Z,12.77
2018-03-27T07:13:04.254Z,9.03
2018-03-27T07:15:32.888Z,10.40
2018-03-27T07:18:01.507Z,9.53
2018-03-27T07:20:30.265Z,13.00
2018-03-27T07:22:59.012Z,7.80
2018-03-27T07:25:27.661Z,9.40
2018-03-27T07:27:56.527Z,9.87
2018-03-27T07:30:25.128Z,8.43
2018-03-27T07:32:53.768Z,9.20
2018-03-27T07:35:22.384Z,9.10
2018-03-27T07:37:51.039Z,24.33
2018-03-27T07:40:19.680Z,7.37
2018-03-27T07:42:48.312Z,10.93
2018-03-27T07:45:16.919Z,11.87
2018-03-27T07:47:45.563Z,10.00
2018-03-27T07:50:14.173Z,6.70
2018-03-27T07:52:42.794Z,11.33
2018-03-27T07:55:11.430Z,7.90
2018-03-27T07:57:40.412Z,9.53
2018-03-27T08:00:09.103Z,8.60
2018-03-27T08:02:37.702Z,10.73
2018-03-27T08:05:06.440Z,7.80
2018-03-27T08:07:35.025Z,11.50
2018-03-27T08:10:03.729Z,8.03
2018-03-27T08:12:32.443Z,6.80
2018-03-27T08:15:01.163Z,7.47
2018-03-27T08:17:29.891Z,6.27
2018-03-27T08:19:58.516Z,5.67
2018-03-27T08:22:27.331Z,7.50
2018-03-27T08:24:56.053Z,7.47
2018-03-27T08:27:25.242Z,12.13
2018-03-27T08:29:53.851Z,8.40
2018-03-27T08:32:22.518Z,11.03
2018-03-27T08:34:51.144Z,9.73
2018-03-27T08:37:19.752Z,13.30
2018-03-27T08:39:48.395Z,9.60
2018-03-27T08:42:17.135Z,8.07
2018-03-27T08:44:45.832Z,14.77
2018-03-27T08:47:14.501Z,7.67
2018-03-27T08:49:43.271Z,7.93
2018-03-27T08:52:11.879Z,6.57
2018-03-27T08:54:40.854Z,16.70
2018-03-27T08:57:09.597Z,15.97
2018-03-27T08:59:38.205Z,12.27
2018-03-27T09:02:06.858Z,14.70
2018-03-27T09:04:35.512Z,17.97
2018-03-27T09:07:04.210Z,19.73
2018-03-27T09:09:32.863Z,17.77
2018-03-27T09:12:01.449Z,17.53
2018-03-27T09:14:30.057Z,18.53
2018-03-27T09:16:58.920Z,27.00
2018-03-27T09:19:27.562Z,23.47
2018-03-27T09:21:56.210Z,16.93
2018-03-27T09:24:24.978Z,20.23
2018-03-27T09:26:53.646Z,27.00
2018-03-27T09:29:22.281Z,26.80
2018-03-27T09:31:50.916Z,20.90
2018-03-27T09:34:19.519Z,18.90
2018-03-27T09:36:48.298Z,23.13
2018-03-27T09:39:16.952Z,20.03
2018-03-27T09:41:45.589Z,27.63
2018-03-27T09:44:14.452Z,24.10
2018-03-27T09:46:43.054Z,25.00
2018-03-27T09:49:11.671Z,21.03
2018-03-27T09:51:40.324Z,23.30
2018-03-27T09:54:09.038Z,27.03
2018-03-27T09:56:37.701Z,26.27
2018-03-27T09:59:06.387Z,26.93
2018-03-27T10:01:39.819Z,24.83
2018-03-27T10:04:08.448Z,24.53
2018-03-27T10:06:37.140Z,19.80
2018-03-27T10:09:06.055Z,21.03
2018-03-27T10:11:34.689Z,19.40
2018-03-27T10:14:03.325Z,19.60
2018-03-27T10:16:31.964Z,22.50
2018-03-27T10:19:00.673Z,18.13
2018-03-27T10:21:29.403Z,18.67
2018-03-27T10:23:58.036Z,21.00
2018-03-27T10:26:26.648Z,18.60
2018-03-27T10:28:55.330Z,20.40
2018-03-27T10:31:23.923Z,19.57
2018-03-27T10:33:53.203Z,21.03
2018-03-27T10:36:21.823Z,26.03
2018-03-27T10:38:50.498Z,19.67
2018-03-27T10:41:19.271Z,35.63
2018-03-27T10:43:47.882Z,21.27
2018-03-27T10:46:16.715Z,21.33
2018-03-27T10:48:45.437Z,17.10
2018-03-27T10:51:14.082Z,16.83
2018-03-27T10:53:42.702Z,17.67
2018-03-27T10:56:11.348Z,15.60
2018-03-27T10:58:39.980Z,21.73
2018-03-27T11:01:08.642Z,18.77
2018-03-27T11:03:37.377Z,19.83
2018-03-27T11:06:06.087Z,20.63
2018-03-27T11:08:34.777Z,20.00
2018-03-27T11:11:03.549Z,24.23
2018-03-27T11:13:32.888Z,21.07
2018-03-27T11:16:01.510Z,22.83
2018-03-27T11:18:30.185Z,21.30
2018-03-27T11:20:58.817Z,18.27
2018-03-27T11:23:27.441Z,24.03
2018-03-27T11:25:56.122Z,29.53
2018-03-27T11:28:24.786Z,20.37
2018-03-27T11:30:53.456Z,21.77
2018-03-27T11:33:22.129Z,16.20
2018-03-27T11:35:50.862Z,18.23
2018-03-27T11:38:19.643Z,24.27
2018-03-27T11:40:48.296Z,17.63
2018-03-27T11:43:17.429Z,25.17
2018-03-27T11:45:46.062Z,17.07
2018-03-27T11:48:14.752Z,19.07
2018-03-27T11:50:43.388Z,16.17
2018-03-27T11:53:12.820Z,15.97
2018-03-27T11:55:41.526Z,20.47
2018-03-27T11:58:10.229Z,24.87
2018-03-27T12:00:38.875Z,17.13
2018-03-27T12:03:07.629Z,15.07
2018-03-27T12:05:36.299Z,17.73
2018-03-27T12:08:05.032Z,23.53
2018-03-27T12:10:33.717Z,15.93
2018-03-27T12:13:02.431Z,13.50
2018-03-27T12:15:31.065Z,17.90
2018-03-27T12:17:59.722Z,13.30
2018-03-27T12:20:28.320Z,12.23
2018-03-27T12:22:56.969Z,13.97
2018-03-27T12:25:25.595Z,18.92
2018-03-27T12:27:54.250Z,13.30
2018-03-27T12:30:22.871Z,12.33
2018-03-27T12:32:51.559Z,12.53
2018-03-27T12:35:20.163Z,12.60
2018-03-27T12:37:48.741Z,12.10
2018-03-27T12:40:17.282Z,21.03
2018-03-27T12:42:45.864Z,11.90
2018-03-27T12:45:14.465Z,13.30
2018-03-27T12:47:43.097Z,13.23
2018-03-27T12:50:11.700Z,13.63
2018-03-27T12:52:40.726Z,12.30
2018-03-27T12:55:09.293Z,12.93
2018-03-27T12:57:37.908Z,11.30
2018-03-27T13:00:06.540Z,13.10
2018-03-27T13:02:35.231Z,11.23
2018-03-27T13:05:03.782Z,11.33
2018-03-27T13:07:32.559Z,19.97
2018-03-27T13:10:01.378Z,11.30
2018-03-27T13:12:29.978Z,12.67
2018-03-27T13:14:58.574Z,11.87
2018-03-27T13:17:27.174Z,12.77
2018-03-27T13:19:55.799Z,14.13
2018-03-27T13:22:25.160Z,13.80
2018-03-27T13:24:53.717Z,13.17
2018-03-27T13:27:22.320Z,11.10
2018-03-27T13:29:50.904Z,10.83
2018-03-27T13:32:19.758Z,13.27
2018-03-27T13:34:48.298Z,10.63
2018-03-27T13:37:16.933Z,16.50
2018-03-27T13:39:45.591Z,17.60
2018-03-27T13:42:14.185Z,12.30
2018-03-27T13:44:42.791Z,12.83
2018-03-27T13:47:11.385Z,17.20
2018-03-27T13:49:39.974Z,10.23
2018-03-27T13:52:08.675Z,11.00
2018-03-27T13:54:37.980Z,10.83
2018-03-27T13:57:06.539Z,15.27
2018-03-27T13:59:35.202Z,19.40
2018-03-27T14:02:03.788Z,21.10
2018-03-27T14:04:32.403Z,24.13
2018-03-27T14:07:01.003Z,24.23
2018-03-27T14:09:29.678Z,27.07
2018-03-27T14:11:58.277Z,21.53
2018-03-27T14:14:26.824Z,28.40
2018-03-27T14:16:55.474Z,27.37
2018-03-27T14:19:24.268Z,25.70
2018-03-27T14:21:52.884Z,24.30
2018-03-27T14:24:22.232Z,21.83
2018-03-27T14:26:50.866Z,15.63
2018-03-27T14:29:19.445Z,21.10
2018-03-27T14:31:48.004Z,15.00
2018-03-27T14:34:16.626Z,11.63
2018-03-27T14:36:52.284Z,16.13
2018-03-27T14:39:20.897Z,19.57
2018-03-27T14:41:50.284Z,11.60
2018-03-27T14:44:19.056Z,21.43
2018-03-27T14:46:47.910Z,12.40
2018-03-27T14:49:16.587Z,11.90
2018-03-27T14:51:45.407Z,16.17
2018-03-27T14:54:14.068Z,13.63
2018-03-27T14:56:42.743Z,24.70
2018-03-27T14:59:11.372Z,26.20
2018-03-27T15:01:40.089Z,19.83
2018-03-27T15:04:08.787Z,20.10
2018-03-27T15:06:37.431Z,15.07
2018-03-27T15:09:06.255Z,15.77
2018-03-27T15:11:34.984Z,18.30
2018-03-27T15:14:03.556Z,20.93
2018-03-27T15:16:32.820Z,22.40
2018-03-27T15:19:01.455Z,15.40
2018-03-27T15:21:30.164Z,22.97
2018-03-27T15:23:58.882Z,17.37
2018-03-27T15:26:27.607Z,19.10
2018-03-27T15:28:56.332Z,18.10
2018-03-27T15:31:25.050Z,15.43
2018-03-27T15:33:53.671Z,18.50
2018-03-27T15:36:22.314Z,23.23
2018-03-27T15:38:50.924Z,25.43
2018-03-27T15:41:19.736Z,22.20
2018-03-27T15:43:48.462Z,20.03
2018-03-27T15:46:17.181Z,21.40
2018-03-27T15:48:45.812Z,21.97
2018-03-27T15:51:14.526Z,21.00
2018-03-27T15:53:43.787Z,18.10
2018-03-27T15:56:12.571Z,27.60
2018-03-27T15:58:41.292Z,17.90
2018-03-27T16:01:10.583Z,23.10
2018-03-27T16:03:39.336Z,19.00
2018-03-27T16:06:07.952Z,21.50
2018-03-27T16:08:36.682Z,19.13
2018-03-27T16:11:05.403Z,23.53
2018-03-27T16:13:34.031Z,18.90
2018-03-27T16:16:02.750Z,23.40
2018-03-27T16:18:31.436Z,26.70
2018-03-27T16:21:00.023Z,20.87
2018-03-27T16:23:28.705Z,21.27
2018-03-27T16:25:57.426Z,24.63
2018-03-27T16:28:26.012Z,26.03
2018-03-27T16:30:54.769Z,25.23
2018-03-27T16:33:24.221Z,24.17
2018-03-27T16:35:53.117Z,19.57
2018-03-27T16:38:21.740Z,20.43
2018-03-27T16:40:50.459Z,21.47
2018-03-27T16:43:19.080Z,13.93
2018-03-27T16:45:48.794Z,20.20
2018-03-27T16:48:17.348Z,21.67
2018-03-27T16:50:46.149Z,17.63
2018-03-27T16:53:14.875Z,19.85
2018-03-27T16:55:43.595Z,14.17
2018-03-27T16:58:12.191Z,18.03
2018-03-27T17:00:40.918Z,16.87
2018-03-27T17:03:09.662Z,16.97
2018-03-27T17:05:38.476Z,23.03
2018-03-27T17:08:07.085Z,17.50
2018-03-27T17:10:35.825Z,18.60
2018-03-27T17:13:04.649Z,18.93
2018-03-27T17:15:33.237Z,16.47
2018-03-27T17:18:01.960Z,21.33
2018-03-27T17:20:30.813Z,22.67
2018-03-27T17:22:59.538Z,19.60
2018-03-27T17:25:28.258Z,20.90
2018-03-27T17:27:56.884Z,24.57
2018-03-27T17:30:25.607Z,25.63
2018-03-27T17:32:54.422Z,24.13
2018-03-27T17:35:23.125Z,30.23
2018-03-27T17:37:51.869Z,30.90
2018-03-27T17:40:20.691Z,21.30
2018-03-27T17:42:49.445Z,22.83
2018-03-27T17:45:18.091Z,22.70
2018-03-27T17:47:46.853Z,21.23
2018-03-27T17:50:16.684Z,21.13
2018-03-27T17:52:45.390Z,17.97
2018-03-27T17:55:14.037Z,18.27
2018-03-27T17:57:43.362Z,21.87
2018-03-27T18:00:12.170Z,23.53
2018-03-27T18:02:40.859Z,30.53
2018-03-27T18:05:09.522Z,25.77
2018-03-27T18:07:38.135Z,21.87
2018-03-27T18:10:06.777Z,24.63
2018-03-27T18:12:35.528Z,21.13
2018-03-27T18:15:04.304Z,22.53
2018-03-27T18:17:32.861Z,22.63
2018-03-27T18:20:01.646Z,25.13
2018-03-27T18:22:30.247Z,23.67
2018-03-27T18:24:58.990Z,28.40
2018-03-27T18:27:27.712Z,21.67
2018-03-27T18:29:56.330Z,26.10
2018-03-27T18:32:25.054Z,28.30
2018-03-27T18:34:54.323Z,27.37
2018-03-27T18:37:22.928Z,24.00
2018-03-27T18:39:51.541Z,28.70
2018-03-27T18:42:20.273Z,26.13
2018-03-27T18:44:48.963Z,34.87
2018-03-27T18:47:17.604Z,29.50
2018-03-27T18:49:46.325Z,32.90
2018-03-27T18:52:14.992Z,31.03
2018-03-27T18:54:43.751Z,29.80
2018-03-27T18:57:12.350Z,28.73
2018-03-27T18:59:41.096Z,27.77
2018-03-27T19:02:09.814Z,26.70
2018-03-27T19:04:38.640Z,33.70
2018-03-27T19:07:07.259Z,25.73
2018-03-27T19:09:37.687Z,27.70
2018-03-27T19:12:06.413Z,21.47
2018-03-27T19:14:35.068Z,25.00
2018-03-27T19:17:03.754Z,21.33
2018-03-27T19:19:32.476Z,27.27
2018-03-27T19:22:01.201Z,25.03
2018-03-27T19:24:29.830Z,21.77
2018-03-27T19:26:58.542Z,21.58
2018-03-27T19:29:27.263Z,26.90
2018-03-27T19:31:55.885Z,25.70
2018-03-27T19:34:24.511Z,29.50
2018-03-27T19:36:53.128Z,53.90
2018-03-27T19:39:21.936Z,39.47
2018-03-27T19:41:50.581Z,44.33
2018-03-27T19:44:19.315Z,154.87
2018-03-27T19:46:48.024Z,127.03
2018-03-27T19:49:16.643Z,51.33
2018-03-27T19:51:45.530Z,44.13
2018-03-27T19:54:14.260Z,86.27
2018-03-27T19:56:42.998Z,36.90
2018-03-27T19:59:11.727Z,32.47
2018-03-27T20:01:40.450Z,30.55
2018-03-27T20:04:09.168Z,27.87
2018-03-27T20:06:37.890Z,32.73
2018-03-27T20:09:06.517Z,33.83
2018-03-27T20:11:35.140Z,43.37
2018-03-27T20:14:03.871Z,38.90
2018-03-27T20:16:32.492Z,32.78
2018-03-27T20:19:01.273Z,25.88
2018-03-27T20:21:30.025Z,30.37
2018-03-27T20:23:59.250Z,28.35
2018-03-27T20:26:27.946Z,27.83
2018-03-27T20:28:56.590Z,26.98
2018-03-27T20:31:25.307Z,30.17
2018-03-27T20:33:54.035Z,30.50
2018-03-27T20:36:22.741Z,40.73
2018-03-27T20:38:51.455Z,27.77
2018-03-27T20:41:20.097Z,28.33
2018-03-27T20:43:48.662Z,37.05
2018-03-27T20:46:17.442Z,27.52
2018-03-27T20:48:45.994Z,30.50
2018-03-27T20:51:14.785Z,27.67
2018-03-27T20:53:43.506Z,29.20
2018-03-27T20:56:12.156Z,36.37
2018-03-27T20:58:40.763Z,29.33
2018-03-27T21:01:09.511Z,27.50
2018-03-27T21:03:38.082Z,17.03
2018-03-27T21:06:06.815Z,21.40
2018-03-27T21:08:36.238Z,25.60
2018-03-27T21:11:04.960Z,24.50
2018-03-27T21:13:33.646Z,16.17
2018-03-27T21:16:02.303Z,20.10
2018-03-27T21:18:31.026Z,18.37
2018-03-27T21:20:59.749Z,19.00
2018-03-27T21:23:28.470Z,19.05
2018-03-27T21:25:57.107Z,20.65
2018-03-27T21:28:25.789Z,23.10
2018-03-27T21:30:54.400Z,26.83
2018-03-27T21:33:22.972Z,26.67
2018-03-27T21:35:51.736Z,24.52
2018-03-27T21:38:20.378Z,27.62
2018-03-27T21:40:49.024Z,31.95
2018-03-27T21:43:17.742Z,30.77
2018-03-27T21:45:47.168Z,27.70
2018-03-27T21:48:15.891Z,32.53
2018-03-27T21:50:44.711Z,35.38
2018-03-27T21:53:13.467Z,31.95
2018-03-27T21:55:42.073Z,30.73
2018-03-27T21:58:10.822Z,24.58
2018-03-27T22:00:39.500Z,35.40
2018-03-27T22:03:08.244Z,28.30
2018-03-27T22:05:36.837Z,24.45
2018-03-27T22:08:05.599Z,30.50
2018-03-27T22:10:34.270Z,27.40
2018-03-27T22:13:03.114Z,27.90
2018-03-27T22:15:31.746Z,23.80
2018-03-27T22:18:00.554Z,30.73
2018-03-27T22:20:29.191Z,23.83
2018-03-27T22:22:58.085Z,23.83
2018-03-27T22:25:26.716Z,25.10
2018-03-27T22:27:55.472Z,25.90
2018-03-27T22:30:24.866Z,28.55
2018-03-27T22:32:53.587Z,26.35
2018-03-27T22:35:22.309Z,24.00
2018-03-27T22:37:51.004Z,27.63
2018-03-27T22:40:19.660Z,25.50
2018-03-27T22:42:48.289Z,25.58
2018-03-27T22:45:17.601Z,26.60
2018-03-27T22:47:48.093Z,22.27
2018-03-27T22:50:16.849Z,25.55
2018-03-27T22:52:47.981Z,23.17
2018-03-27T22:55:16.616Z,22.43
2018-03-27T22:57:45.388Z,19.80
2018-03-27T23:00:15.448Z,31.33
2018-03-27T23:02:43.843Z,25.30
2018-03-27T23:05:13.696Z,26.80
2018-03-27T23:07:42.320Z,23.57
2018-03-27T23:10:11.050Z,23.10
2018-03-27T23:12:39.761Z,23.07
2018-03-27T23:15:08.493Z,28.97
2018-03-27T23:17:37.203Z,24.73
2018-03-27T23:20:05.984Z,25.73
2018-03-27T23:22:34.748Z,21.00
2018-03-27T23:25:03.420Z,22.33
2018-03-27T23:27:32.104Z,21.97
2018-03-27T23:30:01.120Z,25.08
2018-03-27T23:32:29.941Z,31.47
2018-03-27T23:34:58.679Z,22.00
2018-03-27T23:37:27.383Z,18.83
2018-03-27T23:39:56.124Z,19.98
2018-03-27T23:42:24.925Z,20.30
2018-03-27T23:44:53.647Z,22.80
2018-03-27T23:47:22.368Z,21.27
2018-03-27T23:49:51.002Z,23.08
2018-03-27T23:52:19.613Z,21.23
2018-03-27T23:54:48.258Z,20.83
2018-03-27T23:57:16.860Z,22.33
2018-03-27T23:59:45.578Z,22.73
